Terminal Aerodrome Forecast
Issued by NWS Austin/San Antonio, TX

Home | Current Version | Previous Version | Text Only | Print | Product List | Glossary On
Versions: 1 2 3 4 5 6 7 8 9 10 11 12 13 14 15 16 17 18 19 20 21 22 23 24
936
FTUS44 KEWX 241728
TAFAUS
TAF
KAUS 241728Z 2418/2524 18010KT P6SM SCT040
     FM250800 18003KT P6SM BKN012
     FM251600 18008KT P6SM SCT040 SCT250=

USA.gov is the U.S. government's official web portal to all federal, state and local government web resources and services.